Time;durP1;ratioP1;P1;durP2;ratioP2;P2;SDS_P1;SDS_P2;PMS_P1;PMS_P2;Temp;Humidity;BMP_temperature;BMP_pressure;BME280_temperature;BME280_humidity;BME280_pressure;Samples;Min_cycle;Max_cycle;Signal;HPM_P1;HPM_P2
2021/04/12 00:01:15;;;;;;;18.80;8.70;;;7.50;99.90;;;;;;4409645;28;657648;-66
2021/04/12 00:04:04;;;;;;;20.37;9.27;;;7.50;99.90;;;;;;4407565;28;656706;-67
2021/04/12 00:06:55;;;;;;;16.57;8.33;;;7.50;99.90;;;;;;4429683;28;657324;-68
2021/04/12 00:09:44;;;;;;;15.53;8.47;;;7.40;99.90;;;;;;4413960;28;656904;-66
2021/04/12 00:12:34;;;;;;;13.93;7.70;;;7.40;99.90;;;;;;4409931;28;656406;-67
2021/04/12 00:15:26;;;;;;;18.83;8.57;;;7.50;99.90;;;;;;4413592;28;656236;-67
2021/04/12 00:18:17;;;;;;;17.88;8.57;;;7.50;99.90;;;;;;4413807;28;657970;-66
2021/04/12 00:21:07;;;;;;;14.50;8.30;;;7.40;99.90;;;;;;4409005;28;657038;-66
2021/04/12 00:23:57;;;;;;;14.07;7.83;;;7.40;99.90;;;;;;4409139;28;657803;-67
2021/04/12 00:26:48;;;;;;;12.77;7.80;;;7.40;99.90;;;;;;4407534;28;657847;-66
2021/04/12 00:29:39;;;;;;;13.33;7.23;;;7.40;99.90;;;;;;4400836;28;656573;-66
2021/04/12 00:32:29;;;;;;;13.43;7.50;;;7.40;99.90;;;;;;4424287;28;656403;-67
2021/04/12 00:35:19;;;;;;;12.37;7.80;;;7.40;99.90;;;;;;4425000;28;656544;-68
2021/04/12 00:38:11;;;;;;;14.73;7.03;;;7.40;99.90;;;;;;4418949;28;656524;-68
2021/04/12 00:41:06;;;;;;;17.80;8.10;;;7.50;99.90;;;;;;4397921;28;657102;-66
2021/04/12 00:43:56;;;;;;;10.90;6.77;;;7.50;99.90;;;;;;4412830;28;656857;-66
2021/04/12 00:46:50;;;;;;;13.47;7.50;;;7.50;99.90;;;;;;4409913;28;657600;-66
2021/04/12 00:49:43;;;;;;;14.17;7.63;;;7.50;99.90;;;;;;4414019;28;656262;-66
2021/04/12 00:52:43;;;;;;;12.33;7.07;;;7.50;99.90;;;;;;4409239;28;656639;-66
2021/04/12 00:55:34;;;;;;;11.47;7.20;;;7.40;99.90;;;;;;4394367;28;656117;-66
2021/04/12 00:58:29;;;;;;;12.93;7.43;;;7.50;99.90;;;;;;4389454;28;656454;-67
2021/04/12 01:01:43;;;;;;;14.53;8.10;;;7.50;99.90;;;;;;4386010;28;657122;-67
2021/04/12 01:04:42;;;;;;;13.47;7.33;;;7.50;99.90;;;;;;4409243;28;656972;-66
2021/04/12 01:07:58;;;;;;;15.17;7.43;;;7.50;99.90;;;;;;4409354;28;656665;-66
2021/04/12 01:11:03;;;;;;;15.57;7.30;;;7.50;99.90;;;;;;4400845;28;657423;-66
2021/04/12 01:14:08;;;;;;;17.07;7.87;;;7.40;99.90;;;;;;4408859;28;656515;-66
2021/04/12 01:17:06;;;;;;;11.37;7.33;;;7.40;99.90;;;;;;4406265;28;656846;-66
2021/04/12 01:20:24;;;;;;;13.20;7.77;;;7.40;99.90;;;;;;4386058;28;656885;-66
2021/04/12 01:23:38;;;;;;;11.93;7.77;;;7.40;99.90;;;;;;4399496;28;656796;-68
2021/04/12 01:27:02;;;;;;;12.83;7.63;;;7.40;99.90;;;;;;4408123;28;656717;-66
2021/04/12 01:30:31;;;;;;;14.03;7.93;;;7.40;99.90;;;;;;4401085;28;656943;-66
2021/04/12 01:34:04;;;;;;;17.10;7.97;;;7.40;99.90;;;;;;4341915;28;656510;-66
2021/04/12 01:36:58;;;;;;;16.47;8.10;;;7.30;99.90;;;;;;4331098;28;656309;-67
2021/04/12 01:39:57;;;;;;;13.73;8.40;;;7.30;99.90;;;;;;4338670;28;657066;-66
2021/04/12 01:42:47;;;;;;;18.97;9.10;;;7.30;99.90;;;;;;4338874;28;656571;-66
2021/04/12 01:45:39;;;;;;;19.90;10.23;;;7.30;99.90;;;;;;4338346;28;657284;-66
2021/04/12 01:48:52;;;;;;;21.33;11.17;;;7.20;99.90;;;;;;4357826;28;659385;-66
2021/04/12 01:52:00;;;;;;;33.60;13.40;;;7.20;99.90;;;;;;4336484;28;657583;-66
2021/04/12 01:55:02;;;;;;;22.97;10.43;;;7.20;99.90;;;;;;4339425;28;657730;-66
2021/04/12 01:58:36;;;;;;;18.92;9.10;;;7.10;99.90;;;;;;4336021;28;657555;-66
2021/04/12 02:01:39;;;;;;;22.83;10.23;;;7.10;99.90;;;;;;4340808;28;656758;-67
2021/04/12 02:04:56;;;;;;;20.23;10.33;;;7.00;99.90;;;;;;4315202;28;657864;-68
2021/04/12 02:08:22;;;;;;;17.07;8.87;;;7.00;99.90;;;;;;4312752;28;657574;-67
2021/04/12 02:11:14;;;;;;;18.13;9.37;;;7.00;99.90;;;;;;4270793;29;656945;-67
2021/04/12 02:14:38;;;;;;;16.13;9.30;;;7.00;99.90;;;;;;4330924;28;656395;-66
2021/04/12 02:17:30;;;;;;;17.43;9.10;;;6.90;99.90;;;;;;4336684;28;656655;-67
2021/04/12 02:20:20;;;;;;;16.00;8.20;;;6.80;99.90;;;;;;4340485;28;656697;-67
2021/04/12 02:23:13;;;;;;;16.27;8.20;;;6.80;99.90;;;;;;4335070;28;656563;-67
2021/04/12 02:26:05;;;;;;;17.07;9.03;;;6.70;99.90;;;;;;4328835;28;657385;-67
2021/04/12 02:29:10;;;;;;;15.80;8.33;;;6.60;99.90;;;;;;4314828;28;657227;-66
2021/04/12 02:32:11;;;;;;;16.52;8.68;;;6.50;99.90;;;;;;4315276;28;657935;-66
2021/04/12 02:35:07;;;;;;;21.03;8.27;;;6.50;99.90;;;;;;4308492;28;656999;-66
2021/04/12 02:38:03;;;;;;;16.37;8.23;;;6.40;99.90;;;;;;4337303;28;656719;-66
2021/04/12 02:41:01;;;;;;;16.57;8.50;;;6.40;99.90;;;;;;4331230;28;656645;-66
2021/04/12 02:44:12;;;;;;;17.80;8.27;;;6.30;99.90;;;;;;4314799;28;656795;-66
2021/04/12 02:47:22;;;;;;;13.43;7.50;;;6.30;99.90;;;;;;4334714;28;656802;-66
2021/04/12 02:50:43;;;;;;;12.20;6.27;;;6.20;99.90;;;;;;4348022;28;657215;-66
2021/04/12 02:53:50;;;;;;;13.40;7.80;;;6.20;99.90;;;;;;4361887;28;656338;-66
2021/04/12 02:56:45;;;;;;;12.70;7.80;;;6.10;99.90;;;;;;4331779;28;657009;-67
2021/04/12 02:59:43;;;;;;;15.97;9.20;;;6.10;99.90;;;;;;4332832;28;657074;-66
2021/04/12 03:02:50;;;;;;;16.67;8.27;;;6.10;99.90;;;;;;4366730;28;656500;-66
2021/04/12 03:06:25;;;;;;;21.40;9.13;;;6.10;99.90;;;;;;4332182;28;657040;-66
2021/04/12 03:09:26;;;;;;;15.73;8.70;;;6.00;99.90;;;;;;4273689;29;656836;-66
2021/04/12 03:12:37;;;;;;;17.83;9.50;;;6.00;99.90;;;;;;4264482;29;656766;-66
2021/04/12 03:16:03;;;;;;;14.43;8.20;;;6.00;99.90;;;;;;4292404;29;656602;-66
2021/04/12 03:19:23;;;;;;;18.90;8.57;;;6.00;99.90;;;;;;4290577;29;656790;-67
2021/04/12 03:22:36;;;;;;;15.93;7.40;;;5.90;99.90;;;;;;4295698;29;656712;-67
2021/04/12 03:25:41;;;;;;;14.57;7.60;;;5.90;99.90;;;;;;4280864;28;656832;-66
2021/04/12 03:28:51;;;;;;;12.80;7.17;;;5.80;99.90;;;;;;4278053;29;656748;-66
2021/04/12 03:31:49;;;;;;;16.50;7.83;;;5.80;99.90;;;;;;4295372;29;656940;-66
2021/04/12 03:34:37;;;;;;;17.23;7.97;;;5.80;99.90;;;;;;4320092;28;656812;-66
2021/04/12 03:37:35;;;;;;;16.33;8.00;;;5.80;99.90;;;;;;4322829;28;657476;-66
2021/04/12 03:40:25;;;;;;;15.77;8.57;;;5.70;99.90;;;;;;4303727;28;656879;-66
2021/04/12 03:43:34;;;;;;;16.63;8.20;;;5.70;99.90;;;;;;4318042;28;656565;-66
2021/04/12 03:46:26;;;;;;;14.97;7.70;;;5.70;99.90;;;;;;4324406;28;656417;-67
2021/04/12 03:49:32;;;;;;;12.37;7.77;;;5.80;99.90;;;;;;4386326;28;656691;-66
2021/04/12 03:52:44;;;;;;;15.13;7.03;;;5.80;99.90;;;;;;4385402;28;656896;-66
2021/04/12 03:55:59;;;;;;;18.27;7.43;;;5.80;99.90;;;;;;4403733;28;656879;-67
2021/04/12 03:59:21;;;;;;;16.07;7.33;;;5.80;99.90;;;;;;4425328;28;656884;-68
2021/04/12 04:02:25;;;;;;;12.57;7.17;;;5.80;99.90;;;;;;4303079;28;656995;-66
2021/04/12 04:05:28;;;;;;;15.13;8.73;;;5.80;99.90;;;;;;4329355;28;656617;-67
2021/04/12 04:08:37;;;;;;;17.60;9.43;;;5.90;99.90;;;;;;4324779;28;657076;-67
2021/04/12 04:11:38;;;;;;;20.83;8.83;;;5.90;99.90;;;;;;4325369;28;656799;-66
2021/04/12 04:14:52;;;;;;;16.03;9.10;;;5.90;99.90;;;;;;4324940;28;656768;-66
2021/04/12 04:18:17;;;;;;;21.10;8.67;;;5.90;99.90;;;;;;4324416;28;656885;-66
2021/04/12 04:21:42;;;;;;;15.70;8.40;;;6.00;99.90;;;;;;4258433;29;657076;-66
2021/04/12 04:25:05;;;;;;;14.55;8.18;;;6.00;99.90;;;;;;4258830;29;656735;-66
2021/04/12 04:28:17;;;;;;;16.87;8.00;;;6.10;99.90;;;;;;4237308;29;657047;-66
2021/04/12 04:31:25;;;;;;;21.27;8.53;;;6.20;99.90;;;;;;4233580;29;656683;-66
2021/04/12 04:34:24;;;;;;;17.70;8.70;;;6.30;99.90;;;;;;4233959;29;656802;-66
2021/04/12 04:37:47;;;;;;;24.50;9.60;;;6.50;99.90;;;;;;4239009;29;656789;-67
2021/04/12 04:40:50;;;;;;;23.73;8.33;;;6.60;99.90;;;;;;4303897;28;656643;-66
2021/04/12 04:43:50;;;;;;;17.13;7.70;;;6.70;99.90;;;;;;4320560;28;656761;-66
2021/04/12 04:46:51;;;;;;;17.67;8.47;;;6.80;99.90;;;;;;4325808;28;656708;-67
2021/04/12 04:50:15;;;;;;;16.77;7.60;;;6.90;99.90;;;;;;4322499;28;656641;-67
2021/04/12 04:53:18;;;;;;;13.50;6.90;;;7.10;99.90;;;;;;4294808;28;657307;-66
2021/04/12 04:56:13;;;;;;;17.80;6.97;;;7.20;99.90;;;;;;4327070;28;656673;-66
2021/04/12 04:59:09;;;;;;;16.23;7.47;;;7.30;99.90;;;;;;4316054;28;656835;-66
2021/04/12 05:02:20;;;;;;;17.13;7.63;;;7.40;99.90;;;;;;4389562;28;656831;-67
2021/04/12 05:05:20;;;;;;;15.67;7.43;;;7.60;99.90;;;;;;4405818;28;656461;-67
2021/04/12 05:08:41;;;;;;;16.20;6.87;;;7.70;99.90;;;;;;4405991;28;656915;-66
2021/04/12 05:11:42;;;;;;;14.37;6.57;;;7.80;99.90;;;;;;4388921;28;656529;-66
2021/04/12 05:14:51;;;;;;;15.13;7.07;;;8.00;99.90;;;;;;4401457;28;656954;-66
2021/04/12 05:18:19;;;;;;;13.17;6.70;;;8.10;99.90;;;;;;4381269;28;657238;-66
2021/04/12 05:21:36;;;;;;;13.37;7.00;;;8.30;99.90;;;;;;4389174;28;656360;-67
2021/04/12 05:24:43;;;;;;;17.43;6.43;;;8.50;99.90;;;;;;4386815;28;656932;-66
2021/04/12 05:28:09;;;;;;;11.47;5.70;;;8.70;99.90;;;;;;4409038;28;656838;-66
2021/04/12 05:31:15;;;;;;;9.90;5.80;;;8.90;99.90;;;;;;4393470;28;656876;-67
2021/04/12 05:34:27;;;;;;;12.80;5.63;;;9.10;99.90;;;;;;4413427;28;655716;-67
2021/04/12 05:37:46;;;;;;;9.50;5.37;;;9.30;99.90;;;;;;4396647;28;656783;-66
2021/04/12 05:40:54;;;;;;;15.87;5.37;;;9.40;99.90;;;;;;4324722;28;655785;-66
2021/04/12 05:44:09;;;;;;;24.57;10.97;;;9.60;99.90;;;;;;4350178;28;656197;-66
2021/04/12 05:47:09;;;;;;;10.30;5.37;;;9.70;99.90;;;;;;4340171;28;657525;-68
2021/04/12 05:50:18;;;;;;;12.87;7.30;;;9.80;99.90;;;;;;4336718;28;656696;-67
2021/04/12 05:53:22;;;;;;;11.00;4.70;;;9.90;99.90;;;;;;4347619;28;656721;-66
2021/04/12 05:56:40;;;;;;;9.90;4.63;;;10.00;99.90;;;;;;4349581;28;657128;-66
2021/04/12 05:59:38;;;;;;;7.67;4.40;;;10.20;99.90;;;;;;4314941;28;656783;-66
2021/04/12 06:02:31;;;;;;;12.57;4.60;;;10.40;99.90;;;;;;4306714;28;657261;-67
2021/04/12 06:05:22;;;;;;;12.27;5.70;;;10.60;99.90;;;;;;4317099;28;658429;-66
2021/04/12 06:08:57;;;;;;;18.10;6.50;;;10.80;99.90;;;;;;4320778;28;658706;-66
2021/04/12 06:12:09;;;;;;;11.97;5.57;;;11.10;99.90;;;;;;4298931;28;657912;-66
2021/04/12 06:15:46;;;;;;;12.00;5.63;;;11.30;99.90;;;;;;4218808;29;657514;-66
2021/04/12 06:18:52;;;;;;;9.87;5.30;;;11.50;99.90;;;;;;4142741;30;657690;-66
2021/04/12 06:22:21;;;;;;;12.47;5.00;;;11.70;99.90;;;;;;4159381;29;656676;-66
2021/04/12 06:25:55;;;;;;;8.57;4.37;;;11.90;99.90;;;;;;4105791;30;658334;-66
2021/04/12 06:32:34;;;;;;;10.87;4.43;;;12.40;99.90;;;;;;4096675;30;658099;-66
2021/04/12 06:35:52;;;;;;;7.83;3.80;;;12.60;99.90;;;;;;4132465;30;657338;-66
2021/04/12 06:39:10;;;;;;;6.30;3.83;;;12.80;99.90;;;;;;4125665;30;656718;-66
2021/04/12 06:42:22;;;;;;;7.03;3.87;;;12.90;99.90;;;;;;4081068;30;657225;-66
2021/04/12 06:45:58;;;;;;;8.33;3.87;;;13.10;99.90;;;;;;4096923;30;656691;-66
2021/04/12 06:49:18;;;;;;;6.33;4.07;;;13.10;99.90;;;;;;4084910;30;656539;-66
2021/04/12 06:55:20;;;;;;;12.67;3.93;;;13.30;99.90;;;;;;4947745;27;131378;-65
2021/04/12 06:58:38;;;;;;;7.83;4.20;;;13.30;99.90;;;;;;4427819;28;651395;-65
2021/04/12 07:01:41;;;;;;;10.00;4.37;;;13.30;99.90;;;;;;4421937;28;650811;-65
2021/04/12 07:05:02;;;;;;;7.50;3.70;;;13.40;99.90;;;;;;4405451;28;652336;-65
2021/04/12 07:08:21;;;;;;;8.00;3.77;;;13.50;99.60;;;;;;4357681;28;650808;-65
2021/04/12 07:11:42;;;;;;;6.63;3.43;;;13.60;99.40;;;;;;4329984;28;651496;-65
2021/04/12 07:15:15;;;;;;;7.40;3.90;;;13.70;98.50;;;;;;4332865;28;652696;-65
2021/04/12 07:18:36;;;;;;;10.87;3.83;;;13.50;97.80;;;;;;4359720;28;652174;-65
2021/04/12 07:22:07;;;;;;;9.60;4.50;;;13.60;98.70;;;;;;4353138;28;652353;-65
2021/04/12 07:25:18;;;;;;;9.53;4.90;;;13.60;98.30;;;;;;4307536;29;652443;-65
2021/04/12 07:28:30;;;;;;;8.00;4.33;;;13.60;98.20;;;;;;4306454;29;652115;-67
2021/04/12 07:31:43;;;;;;;7.83;4.97;;;13.80;98.30;;;;;;4310728;29;652704;-67
2021/04/12 07:35:09;;;;;;;8.77;4.77;;;14.10;98.40;;;;;;4241170;29;652616;-67
2021/04/12 07:38:35;;;;;;;11.10;3.80;;;14.20;97.30;;;;;;4233220;29;652461;-65
2021/04/12 07:42:10;;;;;;;8.13;3.60;;;14.40;97.00;;;;;;4249751;29;654431;-65
2021/04/12 07:45:30;;;;;;;5.43;2.90;;;14.70;96.00;;;;;;4241617;29;652623;-65
2021/04/12 07:48:57;;;;;;;6.77;2.70;;;14.90;95.50;;;;;;4267830;29;652304;-65
2021/04/12 07:52:10;;;;;;;4.23;2.60;;;15.00;94.50;;;;;;4267217;29;652681;-66
2021/04/12 07:55:29;;;;;;;7.77;3.50;;;15.10;94.60;;;;;;4288716;29;652689;-65
2021/04/12 07:58:45;;;;;;;9.50;3.37;;;15.10;93.90;;;;;;4283850;29;652788;-66
2021/04/12 08:01:58;;;;;;;6.72;3.13;;;15.00;93.80;;;;;;4266605;29;653715;-65
2021/04/12 08:05:21;;;;;;;7.43;3.03;;;14.80;93.10;;;;;;4315498;28;653146;-65
2021/04/12 08:08:27;;;;;;;6.03;3.00;;;14.70;93.70;;;;;;4232166;29;652297;-65
2021/04/12 08:11:44;;;;;;;8.30;2.73;;;14.60;94.40;;;;;;4227360;29;652947;-65
2021/04/12 08:15:17;;;;;;;6.27;2.80;;;14.70;94.20;;;;;;4235553;28;652527;-65
2021/04/12 08:18:38;;;;;;;5.23;2.37;;;14.90;93.90;;;;;;4301225;28;653853;-65
2021/04/12 08:21:36;;;;;;;4.67;2.50;;;14.90;93.20;;;;;;4327363;28;653381;-65
2021/04/12 08:24:47;;;;;;;9.07;2.50;;;15.00;93.70;;;;;;4331885;28;652493;-65
2021/04/12 08:28:12;;;;;;;3.50;2.30;;;14.90;93.10;;;;;;4303800;28;653381;-65
2021/04/12 08:31:36;;;;;;;6.33;2.63;;;14.90;92.60;;;;;;4305532;28;653596;-65
2021/04/12 08:35:04;;;;;;;4.67;2.40;;;14.80;93.20;;;;;;4304279;28;652891;-65
2021/04/12 08:38:28;;;;;;;6.83;2.07;;;14.70;93.10;;;;;;4324291;28;652992;-65
2021/04/12 08:42:03;;;;;;;3.33;2.03;;;14.50;92.90;;;;;;4315766;28;652354;-65
2021/04/12 08:45:16;;;;;;;6.20;2.80;;;14.50;93.40;;;;;;4274545;29;653077;-65
2021/04/12 08:48:23;;;;;;;4.40;2.47;;;14.50;93.10;;;;;;4298141;28;652574;-65
2021/04/12 08:51:16;;;;;;;7.77;2.57;;;14.70;93.50;;;;;;4345849;28;652688;-65
2021/04/12 08:54:40;;;;;;;5.40;2.40;;;14.70;92.50;;;;;;4331335;28;652690;-66
2021/04/12 08:58:11;;;;;;;4.43;2.20;;;14.80;92.20;;;;;;4360762;28;652453;-65
2021/04/12 09:01:32;;;;;;;5.10;2.28;;;14.90;92.90;;;;;;4314135;28;652421;-66
2021/04/12 09:04:52;;;;;;;4.03;2.67;;;15.20;92.10;;;;;;4287699;28;652918;-67
2021/04/12 09:08:24;;;;;;;5.70;2.57;;;15.30;91.50;;;;;;4310043;28;652885;-67
2021/04/12 09:11:24;;;;;;;5.23;2.70;;;15.50;91.90;;;;;;4321191;28;653118;-67
2021/04/12 09:14:47;;;;;;;7.20;2.70;;;15.60;91.10;;;;;;4295919;28;653082;-68
2021/04/12 09:17:54;;;;;;;5.93;2.60;;;15.60;91.10;;;;;;4325410;28;653075;-68
2021/04/12 09:20:55;;;;;;;7.63;2.90;;;15.80;91.40;;;;;;4301123;28;652247;-68
2021/04/12 09:24:20;;;;;;;8.03;3.03;;;15.90;90.60;;;;;;4329172;28;653051;-67
2021/04/12 09:27:38;;;;;;;7.88;3.30;;;16.00;90.10;;;;;;4253769;29;653664;-66
2021/04/12 09:30:59;;;;;;;7.77;2.83;;;16.30;90.00;;;;;;4276277;29;652744;-65
2021/04/12 09:34:22;;;;;;;4.87;2.70;;;16.10;88.80;;;;;;4276891;29;652483;-65
2021/04/12 09:38:03;;;;;;;9.70;3.40;;;16.00;89.90;;;;;;4276057;29;652673;-65
2021/04/12 09:41:26;;;;;;;8.37;3.37;;;16.20;89.80;;;;;;4261875;29;652332;-66
2021/04/12 09:44:49;;;;;;;7.80;3.83;;;16.10;88.80;;;;;;4260695;29;653443;-65
2021/04/12 09:48:06;;;;;;;6.63;3.10;;;16.10;88.20;;;;;;4234809;29;653071;-66
2021/04/12 09:51:35;;;;;;;6.80;3.50;;;16.30;89.10;;;;;;4236939;29;654422;-65
2021/04/12 09:54:44;;;;;;;8.47;4.27;;;16.30;88.10;;;;;;4237411;29;654177;-65
2021/04/12 09:58:07;;;;;;;8.57;4.20;;;16.20;88.00;;;;;;4242649;29;653911;-65
2021/04/12 10:01:14;;;;;;;9.30;4.23;;;16.30;89.00;;;;;;4258628;29;653884;-66
2021/04/12 10:04:26;;;;;;;6.40;3.47;;;16.10;89.00;;;;;;4241759;29;653723;-65
2021/04/12 10:07:20;;;;;;;11.07;4.30;;;16.10;88.10;;;;;;4328623;28;653503;-66
2021/04/12 10:10:14;;;;;;;6.90;3.97;;;16.10;90.10;;;;;;4325448;28;654410;-66
2021/04/12 10:13:15;;;;;;;7.83;3.90;;;16.00;89.20;;;;;;4341808;28;654328;-66
2021/04/12 10:16:20;;;;;;;10.23;4.57;;;15.80;89.00;;;;;;4336236;28;654465;-65
2021/04/12 10:19:09;;;;;;;10.80;4.53;;;15.70;89.30;;;;;;4399486;28;656207;-65
2021/04/12 10:21:57;;;;;;;9.87;3.73;;;15.70;90.00;;;;;;4436579;28;654597;-66
2021/04/12 10:24:48;;;;;;;10.70;4.10;;;15.70;90.20;;;;;;4456449;28;654704;-66
2021/04/12 10:27:37;;;;;;;13.00;4.30;;;15.50;89.60;;;;;;4423620;28;654821;-65
2021/04/12 10:30:25;;;;;;;12.93;4.50;;;15.50;90.00;;;;;;4428102;28;656143;-65
2021/04/12 10:33:15;;;;;;;8.53;4.13;;;15.60;90.70;;;;;;4428729;28;654329;-65
2021/04/12 10:36:05;;;;;;;6.70;3.60;;;15.60;90.50;;;;;;4414421;28;653840;-65
2021/04/12 10:38:58;;;;;;;7.33;4.07;;;15.80;90.20;;;;;;4427918;28;653592;-66
2021/04/12 10:41:47;;;;;;;11.63;4.50;;;15.90;89.30;;;;;;4423816;28;653585;-65
2021/04/12 10:44:36;;;;;;;7.43;4.07;;;16.10;90.40;;;;;;4428510;28;655552;-65
2021/04/12 10:47:27;;;;;;;8.77;4.20;;;16.20;90.20;;;;;;4424081;28;654523;-65
2021/04/12 10:50:19;;;;;;;10.60;4.17;;;16.00;89.50;;;;;;4432596;28;654214;-66
2021/04/12 10:53:33;;;;;;;12.33;4.50;;;15.90;89.50;;;;;;4422166;28;655162;-66
2021/04/12 10:56:25;;;;;;;9.53;4.10;;;15.90;89.80;;;;;;4428231;28;654401;-65
2021/04/12 10:59:34;;;;;;;8.40;4.20;;;15.90;89.50;;;;;;4410402;28;653424;-66
2021/04/12 11:02:22;;;;;;;10.17;3.90;;;15.90;89.00;;;;;;4385112;28;653331;-65
2021/04/12 11:05:10;;;;;;;11.10;4.23;;;15.80;89.00;;;;;;4442744;28;656433;-65
2021/04/12 11:08:02;;;;;;;7.68;4.07;;;15.70;89.10;;;;;;4426907;28;654651;-66
2021/04/12 11:11:08;;;;;;;11.07;4.43;;;15.50;89.30;;;;;;4426991;28;654227;-66
2021/04/12 11:13:56;;;;;;;10.83;4.30;;;15.50;89.00;;;;;;4426442;28;655078;-65
2021/04/12 11:16:45;;;;;;;7.77;4.37;;;15.50;89.70;;;;;;4426194;28;655572;-66
2021/04/12 11:19:35;;;;;;;9.43;4.17;;;15.50;89.30;;;;;;4420218;28;653623;-65
2021/04/12 11:22:32;;;;;;;9.07;4.27;;;15.30;89.00;;;;;;4416985;28;653508;-65
2021/04/12 11:25:21;;;;;;;12.47;4.00;;;15.40;90.60;;;;;;4416323;28;654278;-65
2021/04/12 11:28:15;;;;;;;10.90;4.27;;;15.50;89.70;;;;;;4432349;28;654813;-66
2021/04/12 11:31:15;;;;;;;8.23;4.10;;;15.50;89.50;;;;;;4426200;28;655045;-66
2021/04/12 11:34:06;;;;;;;7.40;4.00;;;15.30;88.30;;;;;;4404650;28;653459;-65
2021/04/12 11:37:14;;;;;;;10.97;3.97;;;15.20;89.60;;;;;;4414817;28;653781;-66
2021/04/12 11:40:04;;;;;;;10.13;4.10;;;15.30;90.20;;;;;;4391519;28;654650;-65
2021/04/12 11:42:54;;;;;;;9.63;3.72;;;15.20;89.70;;;;;;4428231;28;654150;-65
2021/04/12 11:45:44;;;;;;;9.18;3.47;;;15.20;90.00;;;;;;4434139;28;653360;-65
2021/04/12 11:48:36;;;;;;;7.57;3.47;;;15.10;89.50;;;;;;4455409;28;653316;-66
2021/04/12 11:51:32;;;;;;;7.23;3.40;;;15.30;89.70;;;;;;4409611;28;654103;-66
2021/04/12 11:54:25;;;;;;;9.15;3.72;;;15.50;90.00;;;;;;4416165;28;655087;-65
2021/04/12 11:57:36;;;;;;;10.33;3.73;;;15.60;88.60;;;;;;4428296;28;653945;-65
2021/04/12 12:00:29;;;;;;;5.83;3.63;;;15.50;87.90;;;;;;4399535;28;655086;-66
2021/04/12 12:03:21;;;;;;;11.50;3.43;;;15.50;88.30;;;;;;4419276;28;653126;-66
2021/04/12 12:06:15;;;;;;;11.50;4.03;;;15.50;90.00;;;;;;4407973;28;655306;-66
2021/04/12 12:09:08;;;;;;;9.33;4.10;;;15.60;88.80;;;;;;4406911;28;657040;-66
2021/04/12 12:11:59;;;;;;;8.83;4.50;;;15.80;88.50;;;;;;4416863;28;654239;-66
2021/04/12 12:14:51;;;;;;;10.67;3.90;;;15.90;87.50;;;;;;4421077;28;655025;-66
2021/04/12 12:17:41;;;;;;;9.53;4.20;;;16.10;87.50;;;;;;4433627;28;655943;-66
2021/04/12 12:20:33;;;;;;;8.53;4.07;;;16.20;87.30;;;;;;4428032;28;655195;-65
2021/04/12 12:23:42;;;;;;;7.87;4.00;;;16.50;88.00;;;;;;4431209;28;654598;-66
2021/04/12 12:26:33;;;;;;;10.20;4.15;;;16.80;86.50;;;;;;4428048;28;654528;-66
2021/04/12 12:29:22;;;;;;;10.80;4.50;;;17.00;84.50;;;;;;4426116;28;656864;-65
2021/04/12 12:32:29;;;;;;;11.23;4.30;;;17.30;85.20;;;;;;4426898;28;656351;-66
2021/04/12 12:35:29;;;;;;;10.87;4.23;;;17.40;83.00;;;;;;4403193;28;656080;-66
2021/04/12 12:38:30;;;;;;;9.57;3.97;;;17.30;82.00;;;;;;4404738;28;656314;-66
2021/04/12 12:41:19;;;;;;;8.63;4.20;;;17.90;84.20;;;;;;4401624;28;655552;-66
2021/04/12 12:44:07;;;;;;;9.90;4.73;;;18.60;83.80;;;;;;4448090;28;654691;-66
2021/04/12 12:46:54;;;;;;;14.13;4.50;;;18.90;81.50;;;;;;4453146;28;655234;-65
2021/04/12 12:49:46;;;;;;;9.20;5.07;;;18.90;80.20;;;;;;4451924;28;655419;-66
2021/04/12 12:52:37;;;;;;;10.07;5.20;;;18.90;78.50;;;;;;4428897;28;655056;-65
2021/04/12 12:55:28;;;;;;;16.57;8.57;;;18.40;81.70;;;;;;4427792;28;655825;-65
2021/04/12 12:58:18;;;;;;;20.30;8.23;;;18.10;82.40;;;;;;4410150;28;656378;-66
2021/04/12 13:01:08;;;;;;;14.10;8.70;;;17.90;82.60;;;;;;4426876;28;655207;-66
2021/04/12 13:03:55;;;;;;;15.20;7.73;;;17.90;82.90;;;;;;4422654;28;655390;-66
2021/04/12 13:06:42;;;;;;;15.93;7.50;;;18.00;81.80;;;;;;4432846;28;655427;-65
2021/04/12 13:09:31;;;;;;;17.53;8.87;;;18.20;83.00;;;;;;4450580;28;657282;-65
2021/04/12 13:12:19;;;;;;;15.50;8.80;;;18.10;81.30;;;;;;4420233;28;657342;-66
2021/04/12 13:15:28;;;;;;;15.40;9.67;;;17.90;83.30;;;;;;4448037;28;655236;-66
2021/04/12 13:18:25;;;;;;;24.77;15.70;;;18.10;82.00;;;;;;4428137;28;655803;-66
2021/04/12 13:21:13;;;;;;;25.97;14.53;;;18.30;81.60;;;;;;4409267;28;657124;-66
2021/04/12 13:24:18;;;;;;;26.87;16.43;;;18.40;83.80;;;;;;4449939;28;656750;-65
2021/04/12 13:27:07;;;;;;;22.07;14.57;;;18.30;83.10;;;;;;4427419;28;656914;-65
2021/04/12 13:29:55;;;;;;;24.67;12.90;;;18.30;84.50;;;;;;4426828;28;657803;-65
2021/04/12 13:32:51;;;;;;;24.67;14.10;;;17.90;82.30;;;;;;4430097;28;656768;-66
2021/04/12 13:35:40;;;;;;;26.67;14.13;;;17.00;84.60;;;;;;4403566;28;657185;-65
2021/04/12 13:38:29;;;;;;;20.43;13.63;;;16.60;85.90;;;;;;4423085;28;656905;-66
2021/04/12 13:41:20;;;;;;;25.10;14.03;;;16.40;87.10;;;;;;4425775;28;657358;-66
2021/04/12 13:44:09;;;;;;;21.20;13.87;;;16.30;88.00;;;;;;4422631;28;656915;-65
2021/04/12 13:47:03;;;;;;;25.07;13.50;;;16.20;87.20;;;;;;4440655;28;656436;-66
2021/04/12 13:49:51;;;;;;;24.10;13.80;;;16.10;88.00;;;;;;4427062;28;657675;-65
2021/04/12 13:52:47;;;;;;;27.30;14.10;;;16.00;88.60;;;;;;4427089;28;657821;-66
2021/04/12 13:55:36;;;;;;;32.20;13.93;;;16.10;89.30;;;;;;4395330;28;656877;-66
2021/04/12 13:58:25;;;;;;;25.23;13.23;;;16.30;90.00;;;;;;4426379;28;657663;-66
2021/04/12 14:01:15;;;;;;;28.30;14.50;;;16.50;89.90;;;;;;4418073;28;656921;-65
2021/04/12 14:04:04;;;;;;;28.00;15.90;;;16.50;90.10;;;;;;4425788;28;657124;-66
2021/04/12 14:06:56;;;;;;;26.07;15.03;;;16.20;90.20;;;;;;4430338;28;656554;-66
2021/04/12 14:09:44;;;;;;;25.43;15.17;;;16.10;90.40;;;;;;4430639;28;657363;-66
2021/04/12 14:12:33;;;;;;;26.57;15.17;;;15.80;90.40;;;;;;4439682;28;657091;-65
2021/04/12 14:15:30;;;;;;;26.70;13.50;;;15.60;90.90;;;;;;4442137;28;657137;-66
2021/04/12 14:18:26;;;;;;;28.23;12.83;;;15.30;91.20;;;;;;4395744;28;656508;-65
2021/04/12 14:21:22;;;;;;;23.10;12.90;;;15.10;91.60;;;;;;4430240;28;656426;-65
2021/04/12 14:24:12;;;;;;;26.07;13.63;;;14.80;92.60;;;;;;4421142;28;656706;-66
2021/04/12 14:27:01;;;;;;;21.93;13.73;;;14.80;92.50;;;;;;4426358;28;657574;-66
2021/04/12 14:29:50;;;;;;;33.10;17.73;;;14.60;92.90;;;;;;4430672;28;656524;-65
2021/04/12 14:32:40;;;;;;;33.00;16.47;;;14.40;93.70;;;;;;4420206;28;656836;-65
2021/04/12 14:35:29;;;;;;;30.73;15.97;;;14.40;94.30;;;;;;4430036;28;656892;-65
2021/04/12 14:38:17;;;;;;;30.40;15.17;;;14.20;94.80;;;;;;4425258;28;656801;-65
2021/04/12 14:41:08;;;;;;;27.27;15.40;;;14.10;94.90;;;;;;4443480;28;656865;-65
2021/04/12 14:43:57;;;;;;;30.67;15.87;;;14.10;95.50;;;;;;4425924;28;656729;-65
2021/04/12 14:46:45;;;;;;;28.93;14.77;;;14.00;95.40;;;;;;4422120;28;657727;-65
2021/04/12 14:49:37;;;;;;;31.90;15.23;;;13.90;95.50;;;;;;4426135;28;656791;-65
2021/04/12 14:52:43;;;;;;;26.17;14.13;;;13.90;95.60;;;;;;4425565;28;657551;-66
2021/04/12 14:55:32;;;;;;;31.80;14.97;;;13.80;95.70;;;;;;4424174;28;656549;-65
2021/04/12 14:58:23;;;;;;;39.20;15.20;;;13.90;96.10;;;;;;4415386;28;657065;-66
2021/04/12 15:01:12;;;;;;;31.80;14.10;;;13.90;96.00;;;;;;4425656;28;657054;-65
2021/04/12 15:04:01;;;;;;;29.70;14.93;;;13.90;96.30;;;;;;4425808;28;657516;-65
2021/04/12 15:06:49;;;;;;;25.50;12.90;;;13.70;96.40;;;;;;4428601;28;657640;-65
2021/04/12 15:09:41;;;;;;;26.33;13.57;;;13.80;96.60;;;;;;4420183;28;656962;-65
2021/04/12 15:12:28;;;;;;;27.47;11.57;;;13.40;96.60;;;;;;4425382;28;657727;-65
2021/04/12 15:15:20;;;;;;;21.53;9.93;;;13.10;97.10;;;;;;4452916;28;655957;-65
2021/04/12 15:18:14;;;;;;;18.93;10.47;;;12.80;97.80;;;;;;4410463;28;656045;-65
2021/04/12 15:21:06;;;;;;;16.90;9.53;;;12.60;98.20;;;;;;4423337;28;656474;-65
2021/04/12 15:24:04;;;;;;;18.17;10.03;;;12.40;98.50;;;;;;4406969;28;656263;-65
2021/04/12 15:26:55;;;;;;;18.97;9.50;;;12.50;99.10;;;;;;4426127;28;656790;-66
2021/04/12 15:29:43;;;;;;;26.33;11.97;;;12.50;98.90;;;;;;4429750;28;656437;-65
2021/04/12 15:32:31;;;;;;;18.63;10.70;;;12.50;99.20;;;;;;4455897;28;656903;-65
2021/04/12 15:35:32;;;;;;;21.60;11.67;;;12.40;99.30;;;;;;4425972;28;656929;-65
2021/04/12 15:38:21;;;;;;;14.77;8.57;;;12.20;99.40;;;;;;4421501;28;657044;-65
2021/04/12 15:41:09;;;;;;;15.97;10.40;;;11.90;99.80;;;;;;4427677;28;656566;-65
2021/04/12 15:44:04;;;;;;;17.83;10.13;;;11.60;99.90;;;;;;4450766;28;656424;-66